createdAt,value
2018-09-02T00:00:35.090Z,13.50
2018-09-02T00:03:04.804Z,13.50
2018-09-02T00:05:33.683Z,13.50
2018-09-02T00:08:02.494Z,13.60
2018-09-02T00:10:31.939Z,13.70
2018-09-02T00:13:00.661Z,13.80
2018-09-02T00:15:30.074Z,13.70
2018-09-02T00:17:58.665Z,13.60
2018-09-02T00:20:27.375Z,13.50
2018-09-02T00:22:55.765Z,13.60
2018-09-02T00:25:24.332Z,13.70
2018-09-02T00:27:53.039Z,13.50
2018-09-02T00:30:21.619Z,13.40
2018-09-02T00:32:50.064Z,13.50
2018-09-02T00:35:18.638Z,13.40
2018-09-02T00:37:47.100Z,13.40
2018-09-02T00:40:15.616Z,13.40
2018-09-02T00:42:44.106Z,13.40
2018-09-02T00:45:13.842Z,13.40
2018-09-02T00:47:42.385Z,13.40
2018-09-02T00:50:10.823Z,13.40
2018-09-02T00:52:39.441Z,13.40
2018-09-02T00:55:07.970Z,13.40
2018-09-02T00:57:36.456Z,13.40
2018-09-02T01:00:11.441Z,13.40
2018-09-02T01:02:39.891Z,13.50
2018-09-02T01:05:08.428Z,13.50
2018-09-02T01:07:37.038Z,13.50
2018-09-02T01:10:05.931Z,13.60
2018-09-02T01:12:34.450Z,13.60
2018-09-02T01:15:02.933Z,13.60
2018-09-02T01:17:31.439Z,13.60
2018-09-02T01:19:59.944Z,13.50
2018-09-02T01:22:28.457Z,13.50
2018-09-02T01:24:57.290Z,13.50
2018-09-02T01:27:26.235Z,13.50
2018-09-02T01:29:54.672Z,13.50
2018-09-02T01:32:23.251Z,13.60
2018-09-02T01:34:51.722Z,13.60
2018-09-02T01:37:20.273Z,13.60
2018-09-02T01:39:48.744Z,13.50
2018-09-02T01:42:17.257Z,13.50
2018-09-02T01:44:45.797Z,13.50
2018-09-02T01:47:14.273Z,13.50
2018-09-02T01:49:42.949Z,13.50
2018-09-02T01:52:11.378Z,13.50
2018-09-02T01:54:39.874Z,13.50
2018-09-02T01:57:08.609Z,13.50
2018-09-02T01:59:37.253Z,13.60
2018-09-02T02:02:05.961Z,13.60
2018-09-02T02:04:39.761Z,13.60
2018-09-02T02:07:08.305Z,13.60
2018-09-02T02:09:36.864Z,13.60
2018-09-02T02:12:05.337Z,13.70
2018-09-02T02:14:34.015Z,13.70
2018-09-02T02:17:02.608Z,13.70
2018-09-02T02:19:32.136Z,13.70
2018-09-02T02:22:00.598Z,13.80
2018-09-02T02:24:29.159Z,13.70
2018-09-02T02:26:57.660Z,13.70
2018-09-02T02:29:26.170Z,13.70
2018-09-02T02:31:54.887Z,13.60
2018-09-02T02:34:23.407Z,13.60
2018-09-02T02:36:51.850Z,13.60
2018-09-02T02:39:20.370Z,13.60
2018-09-02T02:41:48.892Z,13.60
2018-09-02T02:44:17.356Z,13.70
2018-09-02T02:46:45.979Z,13.70
2018-09-02T02:49:14.474Z,13.60
2018-09-02T02:51:43.073Z,13.60
2018-09-02T02:54:12.977Z,13.60
2018-09-02T02:56:41.469Z,13.60
2018-09-02T02:59:10.253Z,13.60
2018-09-02T03:01:38.773Z,13.50
2018-09-02T03:04:07.391Z,13.50
2018-09-02T03:06:35.910Z,13.50
2018-09-02T03:09:09.044Z,13.50
2018-09-02T03:11:37.603Z,13.50
2018-09-02T03:14:07.541Z,13.50
2018-09-02T03:16:36.024Z,13.50
2018-09-02T03:19:04.937Z,13.50
2018-09-02T03:21:33.470Z,13.50
2018-09-02T03:24:02.126Z,13.40
2018-09-02T03:26:30.607Z,13.50
2018-09-02T03:28:59.132Z,13.40
2018-09-02T03:31:27.690Z,13.50
2018-09-02T03:33:56.184Z,13.60
2018-09-02T03:36:24.701Z,13.60
2018-09-02T03:38:53.393Z,13.50
2018-09-02T03:41:21.917Z,13.40
2018-09-02T03:43:50.420Z,13.30
2018-09-02T03:46:19.117Z,13.30
2018-09-02T03:48:47.862Z,13.30
2018-09-02T03:51:17.027Z,13.40
2018-09-02T03:53:45.716Z,13.70
2018-09-02T03:56:14.226Z,13.70
2018-09-02T03:58:42.678Z,13.90
2018-09-02T04:01:11.115Z,13.80
2018-09-02T04:03:39.633Z,13.90
2018-09-02T04:06:08.234Z,13.70
2018-09-02T04:08:36.789Z,13.80
2018-09-02T04:11:05.414Z,13.40
2018-09-02T04:13:34.084Z,13.50
2018-09-02T04:16:02.631Z,13.40
2018-09-02T04:18:31.075Z,13.50
2018-09-02T04:20:59.748Z,13.50
2018-09-02T04:23:28.280Z,13.50
2018-09-02T04:25:56.862Z,13.40
2018-09-02T04:28:25.359Z,13.60
2018-09-02T04:30:53.848Z,13.60
2018-09-02T04:33:22.343Z,13.60
2018-09-02T04:35:51.887Z,13.80
2018-09-02T04:38:20.780Z,13.80
2018-09-02T04:40:49.273Z,13.80
2018-09-02T04:43:17.782Z,13.70
2018-09-02T04:45:46.199Z,13.70
2018-09-02T04:48:14.723Z,13.50
2018-09-02T04:50:43.198Z,13.50
2018-09-02T04:53:18.363Z,13.40
2018-09-02T04:55:46.965Z,13.40
2018-09-02T04:58:15.514Z,13.50
2018-09-02T05:00:44.058Z,13.70
2018-09-02T05:03:12.483Z,13.80
2018-09-02T05:05:41.064Z,13.70
2018-09-02T05:08:09.606Z,13.70
2018-09-02T05:10:38.181Z,13.70
2018-09-02T05:13:06.744Z,13.80
2018-09-02T05:15:35.277Z,13.80
2018-09-02T05:18:12.686Z,13.70
2018-09-02T05:20:41.122Z,13.80
2018-09-02T05:23:09.636Z,13.80
2018-09-02T05:25:38.334Z,13.80
2018-09-02T05:28:07.380Z,14.10
2018-09-02T05:30:35.887Z,14.00
2018-09-02T05:33:04.432Z,14.00
2018-09-02T05:35:32.974Z,14.00
2018-09-02T05:38:01.784Z,13.90
2018-09-02T05:40:30.362Z,13.90
2018-09-02T05:42:58.952Z,13.90
2018-09-02T05:45:27.459Z,13.90
2018-09-02T05:47:55.938Z,14.20
2018-09-02T05:50:24.434Z,14.10
2018-09-02T05:52:52.933Z,14.10
2018-09-02T05:55:21.426Z,14.20
2018-09-02T05:57:49.981Z,14.20
2018-09-02T06:00:18.510Z,14.10
2018-09-02T06:02:47.111Z,14.30
2018-09-02T06:05:19.728Z,14.30
2018-09-02T06:07:48.273Z,14.40
2018-09-02T06:10:16.854Z,14.40
2018-09-02T06:12:45.372Z,14.40
2018-09-02T06:15:14.581Z,14.40
2018-09-02T06:17:43.161Z,14.40
2018-09-02T06:20:11.980Z,14.40
2018-09-02T06:22:40.527Z,14.50
2018-09-02T06:25:09.237Z,14.50
2018-09-02T06:27:37.849Z,14.50
2018-09-02T06:30:06.628Z,14.50
2018-09-02T06:32:35.123Z,14.60
2018-09-02T06:35:03.661Z,14.70
2018-09-02T06:37:32.196Z,14.70
2018-09-02T06:40:00.774Z,14.70
2018-09-02T06:42:29.472Z,14.70
2018-09-02T06:44:58.072Z,14.80
2018-09-02T06:47:26.518Z,14.70
2018-09-02T06:49:55.027Z,14.70
2018-09-02T06:52:23.725Z,14.70
2018-09-02T06:54:52.429Z,14.70
2018-09-02T06:57:20.926Z,14.70
2018-09-02T06:59:49.393Z,14.80
2018-09-02T07:02:18.313Z,14.80
2018-09-02T07:04:46.781Z,14.80
2018-09-02T07:07:15.437Z,14.90
2018-09-02T07:09:44.058Z,15.00
2018-09-02T07:12:12.945Z,15.10
2018-09-02T07:14:41.426Z,15.10
2018-09-02T07:17:09.925Z,15.10
2018-09-02T07:19:38.571Z,15.20
2018-09-02T07:22:07.618Z,15.30
2018-09-02T07:24:36.181Z,15.30
2018-09-02T07:27:13.132Z,15.30
2018-09-02T07:29:41.656Z,15.30
2018-09-02T07:32:10.203Z,15.30
2018-09-02T07:34:38.750Z,15.40
2018-09-02T07:37:07.219Z,15.40
2018-09-02T07:39:35.851Z,15.50
2018-09-02T07:42:04.387Z,15.50
2018-09-02T07:44:32.833Z,15.60
2018-09-02T07:47:01.326Z,15.70
2018-09-02T07:49:29.823Z,15.70
2018-09-02T07:51:58.362Z,15.70
2018-09-02T07:54:28.282Z,15.70
2018-09-02T07:56:57.129Z,15.70
2018-09-02T07:59:25.723Z,15.80
2018-09-02T08:01:54.358Z,15.90
2018-09-02T08:04:22.858Z,15.90
2018-09-02T08:06:51.364Z,15.90
2018-09-02T08:09:19.818Z,15.90
2018-09-02T08:11:48.317Z,16.00
2018-09-02T08:14:16.904Z,16.00
2018-09-02T08:16:45.608Z,16.10
2018-09-02T08:19:14.053Z,16.20
2018-09-02T08:21:42.618Z,16.20
2018-09-02T08:24:11.077Z,16.20
2018-09-02T08:26:39.705Z,16.30
2018-09-02T08:29:09.202Z,16.30
2018-09-02T08:31:37.866Z,16.20
2018-09-02T08:34:06.872Z,16.20
2018-09-02T08:36:35.373Z,16.30
2018-09-02T08:39:05.162Z,16.30
2018-09-02T08:41:33.654Z,16.30
2018-09-02T08:44:02.154Z,16.40
2018-09-02T08:46:30.942Z,16.40
2018-09-02T08:48:59.493Z,16.50
2018-09-02T08:51:28.371Z,16.50
2018-09-02T08:53:57.075Z,16.60
2018-09-02T08:56:25.885Z,16.70
2018-09-02T08:58:54.807Z,16.70
2018-09-02T09:01:23.519Z,16.70
2018-09-02T09:03:52.027Z,16.80
2018-09-02T09:06:20.677Z,16.80
2018-09-02T09:08:49.226Z,16.90
2018-09-02T09:11:17.930Z,17.10
2018-09-02T09:13:46.468Z,17.10
2018-09-02T09:16:15.130Z,17.10
2018-09-02T09:18:43.630Z,17.00
2018-09-02T09:21:12.122Z,17.00
2018-09-02T09:23:40.544Z,17.10
2018-09-02T09:26:09.079Z,17.30
2018-09-02T09:28:37.534Z,17.30
2018-09-02T09:31:06.904Z,17.50
2018-09-02T09:33:35.470Z,17.60
2018-09-02T09:36:06.081Z,17.60
2018-09-02T09:38:34.580Z,17.70
2018-09-02T09:41:03.151Z,17.70
2018-09-02T09:43:32.622Z,17.80
2018-09-02T09:46:01.413Z,17.80
2018-09-02T09:48:29.851Z,17.90
2018-09-02T09:50:58.502Z,17.90
2018-09-02T09:53:26.994Z,18.00
2018-09-02T09:55:55.511Z,18.00
2018-09-02T09:58:24.037Z,18.10
2018-09-02T10:00:53.119Z,18.10
2018-09-02T10:03:22.450Z,18.20
2018-09-02T10:05:50.967Z,18.10
2018-09-02T10:08:19.427Z,18.20
2018-09-02T10:10:47.973Z,18.20
2018-09-02T10:13:16.507Z,18.30
2018-09-02T10:15:45.033Z,18.30
2018-09-02T10:18:13.639Z,18.40
2018-09-02T10:20:42.111Z,18.40
2018-09-02T10:23:10.626Z,18.30
2018-09-02T10:25:39.149Z,18.30
2018-09-02T10:28:07.689Z,18.40
2018-09-02T10:30:36.350Z,18.50
2018-09-02T10:33:05.245Z,18.60
2018-09-02T10:35:33.754Z,18.60
2018-09-02T10:38:02.264Z,18.60
2018-09-02T10:40:30.953Z,18.60
2018-09-02T10:42:59.488Z,18.70
2018-09-02T10:45:28.058Z,18.70
2018-09-02T10:47:57.582Z,18.60
2018-09-02T10:50:26.538Z,18.60
2018-09-02T10:52:55.097Z,18.60
2018-09-02T10:55:23.772Z,18.60
2018-09-02T10:57:52.235Z,18.60
2018-09-02T11:00:20.753Z,18.60
2018-09-02T11:02:49.262Z,18.70
2018-09-02T11:05:19.065Z,18.70
2018-09-02T11:07:47.537Z,18.70
2018-09-02T11:10:16.038Z,18.70
2018-09-02T11:12:44.615Z,18.70
2018-09-02T11:15:13.240Z,18.80
2018-09-02T11:17:41.996Z,18.80
2018-09-02T11:20:11.117Z,18.80
2018-09-02T11:22:39.651Z,18.80
2018-09-02T11:25:08.211Z,18.80
2018-09-02T11:27:36.683Z,18.80
2018-09-02T11:30:05.600Z,18.80
2018-09-02T11:32:34.658Z,18.80
2018-09-02T11:35:03.372Z,18.80
2018-09-02T11:37:31.916Z,18.80
2018-09-02T11:40:00.670Z,18.80
2018-09-02T11:42:29.327Z,18.80
2018-09-02T11:44:57.909Z,18.80
2018-09-02T11:47:26.376Z,18.80
2018-09-02T11:49:54.998Z,18.90
2018-09-02T11:52:23.593Z,19.00
2018-09-02T11:54:52.149Z,19.00
2018-09-02T11:57:21.612Z,19.20
2018-09-02T11:59:50.091Z,19.20
2018-09-02T12:02:18.610Z,19.20
2018-09-02T12:04:47.327Z,19.30
2018-09-02T12:07:15.835Z,19.40
2018-09-02T12:09:44.483Z,19.30
2018-09-02T12:12:13.025Z,19.30
2018-09-02T12:14:41.509Z,19.20
2018-09-02T12:17:10.017Z,19.20
2018-09-02T12:19:38.559Z,19.10
2018-09-02T12:22:07.430Z,19.00
2018-09-02T12:24:36.114Z,19.00
2018-09-02T12:27:06.942Z,19.10
2018-09-02T12:29:35.885Z,19.10
2018-09-02T12:32:04.507Z,19.10
2018-09-02T12:34:33.013Z,19.10
2018-09-02T12:37:01.514Z,19.10
2018-09-02T12:39:30.194Z,19.00
2018-09-02T12:41:58.683Z,19.10
2018-09-02T12:44:27.318Z,19.10
2018-09-02T12:46:55.796Z,19.10
2018-09-02T12:49:24.326Z,19.10
2018-09-02T12:51:52.888Z,19.00
2018-09-02T12:54:21.486Z,19.00
2018-09-02T12:56:50.016Z,19.00
2018-09-02T12:59:18.550Z,19.00
2018-09-02T13:01:47.240Z,19.00
2018-09-02T13:04:15.795Z,19.00
2018-09-02T13:06:45.088Z,19.00
2018-09-02T13:09:13.825Z,19.00
2018-09-02T13:11:42.336Z,19.00
2018-09-02T13:14:10.832Z,18.90
2018-09-02T13:16:39.510Z,18.80
2018-09-02T13:19:08.151Z,18.80
2018-09-02T13:21:36.660Z,18.70
2018-09-02T13:24:05.710Z,18.70
2018-09-02T13:26:34.229Z,18.70
2018-09-02T13:29:03.091Z,18.60
2018-09-02T13:31:34.791Z,18.60
2018-09-02T13:34:03.331Z,18.60
2018-09-02T13:36:32.054Z,18.50
2018-09-02T13:39:00.529Z,18.50
2018-09-02T13:41:29.804Z,18.50
2018-09-02T13:43:58.297Z,18.50
2018-09-02T13:46:26.740Z,18.40
2018-09-02T13:48:55.284Z,18.40
2018-09-02T13:51:23.951Z,18.30
2018-09-02T13:53:52.626Z,18.30
2018-09-02T13:56:21.217Z,18.20
2018-09-02T13:58:49.882Z,18.20
2018-09-02T14:01:18.600Z,18.20
2018-09-02T14:03:47.449Z,18.20
2018-09-02T14:06:15.926Z,18.20
2018-09-02T14:08:44.784Z,18.20
2018-09-02T14:11:13.370Z,18.30
2018-09-02T14:13:41.938Z,18.30
2018-09-02T14:16:10.539Z,18.30
2018-09-02T14:18:39.245Z,18.30
2018-09-02T14:21:07.762Z,18.20
2018-09-02T14:23:36.213Z,18.30
2018-09-02T14:26:05.540Z,18.30
2018-09-02T14:28:34.168Z,18.20
2018-09-02T14:31:03.140Z,18.20
2018-09-02T14:33:31.756Z,18.10
2018-09-02T14:36:00.326Z,18.20
2018-09-02T14:38:28.852Z,18.20
2018-09-02T14:40:57.539Z,18.20
2018-09-02T14:43:26.027Z,18.20
2018-09-02T14:45:54.557Z,18.10
2018-09-02T14:48:23.134Z,18.10
2018-09-02T14:50:51.817Z,18.00
2018-09-02T14:53:20.249Z,18.00
2018-09-02T14:55:48.746Z,17.90
2018-09-02T14:58:17.396Z,17.90
2018-09-02T15:00:46.161Z,17.90
2018-09-02T15:03:14.629Z,17.90
2018-09-02T15:05:43.727Z,17.90
2018-09-02T15:08:12.286Z,17.90
2018-09-02T15:10:40.786Z,17.90
2018-09-02T15:13:09.381Z,17.90
2018-09-02T15:15:37.907Z,17.90
2018-09-02T15:18:11.483Z,17.90
2018-09-02T15:20:40.017Z,17.90
2018-09-02T15:23:08.553Z,17.90
2018-09-02T15:25:37.156Z,17.80
2018-09-02T15:28:06.109Z,17.90
2018-09-02T15:30:34.703Z,17.90
2018-09-02T15:33:03.416Z,17.90
2018-09-02T15:35:32.014Z,17.90
2018-09-02T15:38:01.606Z,17.90
2018-09-02T15:40:30.261Z,17.90
2018-09-02T15:42:58.987Z,17.90
2018-09-02T15:45:28.411Z,17.90
2018-09-02T15:47:56.905Z,17.90
2018-09-02T15:50:25.683Z,17.90
2018-09-02T15:52:55.281Z,17.90
2018-09-02T15:55:23.778Z,17.90
2018-09-02T15:57:52.509Z,17.90
2018-09-02T16:00:21.023Z,17.90
2018-09-02T16:02:49.505Z,17.90
2018-09-02T16:05:18.082Z,18.00
2018-09-02T16:07:46.658Z,18.00
2018-09-02T16:10:15.167Z,18.00
2018-09-02T16:12:44.405Z,18.00
2018-09-02T16:15:12.993Z,18.00
2018-09-02T16:17:41.805Z,18.00
2018-09-02T16:20:10.647Z,18.00
2018-09-02T16:22:39.179Z,18.00
2018-09-02T16:25:07.778Z,18.00
2018-09-02T16:27:36.908Z,18.00
2018-09-02T16:30:05.910Z,18.00
2018-09-02T16:32:34.594Z,17.90
2018-09-02T16:35:03.990Z,18.00
2018-09-02T16:37:32.801Z,18.00
2018-09-02T16:40:01.338Z,17.90
2018-09-02T16:42:30.686Z,17.90
2018-09-02T16:45:00.478Z,17.90
2018-09-02T16:47:29.004Z,17.90
2018-09-02T16:49:57.647Z,17.90
2018-09-02T16:52:26.324Z,17.90
2018-09-02T16:54:55.250Z,17.90
2018-09-02T16:57:23.740Z,17.90
2018-09-02T16:59:52.274Z,17.80
2018-09-02T17:02:21.346Z,17.80
2018-09-02T17:04:51.002Z,17.80
2018-09-02T17:07:19.527Z,17.80
2018-09-02T17:09:48.024Z,17.70
2018-09-02T17:12:16.640Z,17.70
2018-09-02T17:14:45.417Z,17.80
2018-09-02T17:17:13.933Z,17.80
2018-09-02T17:19:45.762Z,17.70
2018-09-02T17:22:14.578Z,17.80
2018-09-02T17:24:43.180Z,17.80
2018-09-02T17:27:14.320Z,17.70
2018-09-02T17:29:43.092Z,17.80
2018-09-02T17:32:13.977Z,17.70
2018-09-02T17:34:42.484Z,17.70
2018-09-02T17:37:11.243Z,17.60
2018-09-02T17:39:39.748Z,17.60
2018-09-02T17:42:08.489Z,17.50
2018-09-02T17:44:37.501Z,17.50
2018-09-02T17:47:06.315Z,17.40
2018-09-02T17:49:35.276Z,17.40
2018-09-02T17:52:03.896Z,17.30
2018-09-02T17:54:32.561Z,17.30
2018-09-02T17:57:01.363Z,17.20
2018-09-02T17:59:30.100Z,17.30
2018-09-02T18:01:58.819Z,17.30
2018-09-02T18:04:27.710Z,17.20
2018-09-02T18:06:56.405Z,17.20
2018-09-02T18:09:25.036Z,17.20
2018-09-02T18:11:53.595Z,17.20
2018-09-02T18:14:22.171Z,17.20
2018-09-02T18:16:50.986Z,17.20
2018-09-02T18:19:19.547Z,17.20
2018-09-02T18:21:48.054Z,17.30
2018-09-02T18:24:16.676Z,17.20
2018-09-02T18:26:45.692Z,17.20
2018-09-02T18:29:14.286Z,17.20
2018-09-02T18:31:42.806Z,17.20
2018-09-02T18:34:11.731Z,17.20
2018-09-02T18:36:40.251Z,17.20
2018-09-02T18:39:10.430Z,17.20
2018-09-02T18:41:39.088Z,17.20
2018-09-02T18:44:07.836Z,17.20
2018-09-02T18:46:36.483Z,17.20
2018-09-02T18:49:05.757Z,17.20
2018-09-02T18:51:34.436Z,17.20
2018-09-02T18:54:05.233Z,17.10
2018-09-02T18:56:33.729Z,17.10
2018-09-02T18:59:04.086Z,17.10
2018-09-02T19:01:32.613Z,17.10
2018-09-02T19:04:01.404Z,17.10
2018-09-02T19:06:30.271Z,17.10
2018-09-02T19:08:58.818Z,17.10
2018-09-02T19:11:27.386Z,17.10
2018-09-02T19:13:55.926Z,17.00
2018-09-02T19:16:24.537Z,17.10
2018-09-02T19:18:53.037Z,17.10
2018-09-02T19:21:21.624Z,17.00
2018-09-02T19:23:50.895Z,17.10
2018-09-02T19:26:19.435Z,17.10
2018-09-02T19:28:47.962Z,17.10
2018-09-02T19:31:16.854Z,17.10
2018-09-02T19:33:45.583Z,17.00
2018-09-02T19:36:14.406Z,17.10
2018-09-02T19:38:42.942Z,17.00
2018-09-02T19:41:12.070Z,17.00
2018-09-02T19:43:40.980Z,17.00
2018-09-02T19:46:09.506Z,17.00
2018-09-02T19:48:38.239Z,17.00
2018-09-02T19:51:07.318Z,17.00
2018-09-02T19:53:36.853Z,17.00
2018-09-02T19:56:05.625Z,17.00
2018-09-02T19:58:34.246Z,17.00
2018-09-02T20:01:02.755Z,17.00
2018-09-02T20:03:31.698Z,17.00
2018-09-02T20:06:00.595Z,17.00
2018-09-02T20:08:29.158Z,17.00
2018-09-02T20:10:57.723Z,17.00
2018-09-02T20:13:26.462Z,16.90
2018-09-02T20:15:55.265Z,16.90
2018-09-02T20:18:24.017Z,16.90
2018-09-02T20:20:52.817Z,16.90
2018-09-02T20:23:21.359Z,16.90
2018-09-02T20:25:49.932Z,16.90
2018-09-02T20:28:18.486Z,16.90
2018-09-02T20:30:47.249Z,16.90
2018-09-02T20:33:15.996Z,16.90
2018-09-02T20:35:44.706Z,16.80
2018-09-02T20:38:13.542Z,16.80
2018-09-02T20:40:42.194Z,16.80
2018-09-02T20:43:10.665Z,16.90
2018-09-02T20:45:39.396Z,16.80
2018-09-02T20:48:07.940Z,16.80
2018-09-02T20:50:36.625Z,16.80
2018-09-02T20:53:05.546Z,16.80
2018-09-02T20:55:34.244Z,16.80
2018-09-02T20:58:02.992Z,16.80
2018-09-02T21:00:31.557Z,16.80
2018-09-02T21:03:00.243Z,16.70
2018-09-02T21:05:28.932Z,16.80
2018-09-02T21:07:57.570Z,16.70
2018-09-02T21:10:26.091Z,16.60
2018-09-02T21:12:54.698Z,16.60
2018-09-02T21:15:23.267Z,16.50
2018-09-02T21:17:51.767Z,16.50
2018-09-02T21:20:20.425Z,16.40
2018-09-02T21:22:49.335Z,16.40
2018-09-02T21:25:18.013Z,16.30
2018-09-02T21:27:46.768Z,16.30
2018-09-02T21:30:15.426Z,16.30
2018-09-02T21:32:43.999Z,16.30
2018-09-02T21:35:12.741Z,16.30
2018-09-02T21:37:41.290Z,16.30
2018-09-02T21:40:09.914Z,16.20
2018-09-02T21:42:38.602Z,16.20
2018-09-02T21:45:11.992Z,16.10
2018-09-02T21:47:40.625Z,16.10
2018-09-02T21:50:09.530Z,16.10
2018-09-02T21:52:38.267Z,16.10
2018-09-02T21:55:07.041Z,16.20
2018-09-02T21:57:35.581Z,16.10
2018-09-02T22:00:10.713Z,16.10
2018-09-02T22:02:39.206Z,16.20
2018-09-02T22:05:09.532Z,16.10
2018-09-02T22:07:38.164Z,16.00
2018-09-02T22:10:06.762Z,16.10
2018-09-02T22:12:35.389Z,16.10
2018-09-02T22:15:04.073Z,16.00
2018-09-02T22:17:32.754Z,16.00
2018-09-02T22:20:01.188Z,16.00
2018-09-02T22:22:29.992Z,16.00
2018-09-02T22:24:58.523Z,16.00
2018-09-02T22:27:27.063Z,16.10
2018-09-02T22:29:55.718Z,16.10
2018-09-02T22:32:24.226Z,16.00
2018-09-02T22:34:52.964Z,16.00
2018-09-02T22:37:22.422Z,16.00
2018-09-02T22:39:50.890Z,15.90
2018-09-02T22:42:19.538Z,15.80
2018-09-02T22:44:48.036Z,15.70
2018-09-02T22:47:16.556Z,15.70
2018-09-02T22:49:45.244Z,15.70
2018-09-02T22:52:13.980Z,15.60
2018-09-02T22:54:42.497Z,15.60
2018-09-02T22:57:11.050Z,15.60
2018-09-02T22:59:39.477Z,15.60
2018-09-02T23:02:08.296Z,15.60
2018-09-02T23:04:36.763Z,15.70
2018-09-02T23:07:05.209Z,15.60
2018-09-02T23:09:33.819Z,15.60
2018-09-02T23:12:02.296Z,15.60
2018-09-02T23:14:30.792Z,15.60
2018-09-02T23:16:59.295Z,15.60
2018-09-02T23:19:28.102Z,15.50
2018-09-02T23:21:57.565Z,15.60
2018-09-02T23:24:26.075Z,15.70
2018-09-02T23:26:54.631Z,15.70
2018-09-02T23:29:23.173Z,15.70
2018-09-02T23:31:51.711Z,15.60
2018-09-02T23:34:20.604Z,15.60
2018-09-02T23:36:49.103Z,15.70
2018-09-02T23:39:17.715Z,15.70
2018-09-02T23:41:46.319Z,15.70
2018-09-02T23:44:14.790Z,15.60
2018-09-02T23:46:43.252Z,15.50
2018-09-02T23:49:11.728Z,15.50
2018-09-02T23:51:40.286Z,15.50
2018-09-02T23:54:11.646Z,15.60
2018-09-02T23:56:40.201Z,15.60
2018-09-02T23:59:08.733Z,15.60
